sensor_id;sensor_type;location;lat;lon;timestamp;pressure;altitude;pressure_sealevel;temperature;humidity
5283;BME280;15376;48.540;9.268;2023-08-20T00:01:06;97844.72;;;20.52;100.00
5283;BME280;15376;48.540;9.268;2023-08-20T00:03:33;97844.50;;;20.42;100.00
5283;BME280;15376;48.540;9.268;2023-08-20T00:05:59;97783.53;;;20.06;100.00
5283;BME280;15376;48.540;9.268;2023-08-20T00:08:24;97850.59;;;20.49;100.00
5283;BME280;15376;48.540;9.268;2023-08-20T00:10:49;97845.66;;;20.46;100.00
5283;BME280;15376;48.540;9.268;2023-08-20T00:13:15;97857.63;;;20.50;100.00
5283;BME280;15376;48.540;9.268;2023-08-20T00:15:40;97848.59;;;20.33;100.00
5283;BME280;15376;48.540;9.268;2023-08-20T00:18:06;97810.50;;;20.06;100.00
5283;BME280;15376;48.540;9.268;2023-08-20T00:20:32;97853.19;;;20.44;100.00
5283;BME280;15376;48.540;9.268;2023-08-20T00:22:58;97803.56;;;20.21;100.00
5283;BME280;15376;48.540;9.268;2023-08-20T00:25:24;97812.50;;;20.10;100.00
5283;BME280;15376;48.540;9.268;2023-08-20T00:27:49;97825.16;;;20.10;100.00
5283;BME280;15376;48.540;9.268;2023-08-20T00:30:15;97845.44;;;20.12;100.00
5283;BME280;15376;48.540;9.268;2023-08-20T00:32:40;97807.94;;;19.99;100.00
5283;BME280;15376;48.540;9.268;2023-08-20T00:35:06;97832.44;;;20.09;100.00
5283;BME280;15376;48.540;9.268;2023-08-20T00:37:33;97796.44;;;19.80;100.00
5283;BME280;15376;48.540;9.268;2023-08-20T00:39:58;97847.91;;;20.02;100.00
5283;BME280;15376;48.540;9.268;2023-08-20T00:42:24;97861.16;;;19.92;100.00
5283;BME280;15376;48.540;9.268;2023-08-20T00:44:51;97858.47;;;19.92;100.00
5283;BME280;15376;48.540;9.268;2023-08-20T00:47:18;97846.28;;;19.89;100.00
5283;BME280;15376;48.540;9.268;2023-08-20T00:49:44;97833.97;;;19.93;100.00
5283;BME280;15376;48.540;9.268;2023-08-20T00:52:11;97863.38;;;20.18;100.00
5283;BME280;15376;48.540;9.268;2023-08-20T00:54:39;97864.09;;;20.25;100.00
5283;BME280;15376;48.540;9.268;2023-08-20T00:57:06;97809.13;;;19.91;100.00
5283;BME280;15376;48.540;9.268;2023-08-20T00:59:32;97858.34;;;20.10;100.00
5283;BME280;15376;48.540;9.268;2023-08-20T01:01:59;97807.94;;;19.76;100.00
5283;BME280;15376;48.540;9.268;2023-08-20T01:04:24;97854.13;;;19.91;100.00
5283;BME280;15376;48.540;9.268;2023-08-20T01:07:12;97858.41;;;19.69;100.00
5283;BME280;15376;48.540;9.268;2023-08-20T01:12:20;97844.47;;;19.30;100.00
5283;BME280;15376;48.540;9.268;2023-08-20T01:14:46;97853.53;;;19.36;100.00
5283;BME280;15376;48.540;9.268;2023-08-20T01:17:12;97825.06;;;18.98;100.00
5283;BME280;15376;48.540;9.268;2023-08-20T01:19:37;97817.66;;;18.93;100.00
5283;BME280;15376;48.540;9.268;2023-08-20T01:25:21;97873.50;;;19.28;100.00
5283;BME280;15376;48.540;9.268;2023-08-20T01:30:41;97882.47;;;19.40;100.00
5283;BME280;15376;48.540;9.268;2023-08-20T01:33:07;97872.88;;;19.44;100.00
5283;BME280;15376;48.540;9.268;2023-08-20T01:35:33;97880.66;;;19.52;100.00
5283;BME280;15376;48.540;9.268;2023-08-20T01:37:58;97792.47;;;19.18;100.00
5283;BME280;15376;48.540;9.268;2023-08-20T01:40:24;97863.00;;;19.56;100.00
5283;BME280;15376;48.540;9.268;2023-08-20T01:42:49;97877.41;;;19.74;100.00
5283;BME280;15376;48.540;9.268;2023-08-20T01:45:14;97814.03;;;19.29;100.00
5283;BME280;15376;48.540;9.268;2023-08-20T01:47:40;97887.84;;;19.70;100.00
5283;BME280;15376;48.540;9.268;2023-08-20T01:50:06;97886.88;;;19.64;100.00
5283;BME280;15376;48.540;9.268;2023-08-20T01:52:31;97883.50;;;19.57;100.00
5283;BME280;15376;48.540;9.268;2023-08-20T01:54:57;97839.91;;;19.19;100.00
5283;BME280;15376;48.540;9.268;2023-08-20T01:57:23;97888.06;;;19.39;100.00
5283;BME280;15376;48.540;9.268;2023-08-20T01:59:48;97884.50;;;19.26;100.00
5283;BME280;15376;48.540;9.268;2023-08-20T02:02:14;97880.53;;;19.29;100.00
5283;BME280;15376;48.540;9.268;2023-08-20T02:04:39;97883.22;;;19.29;100.00
5283;BME280;15376;48.540;9.268;2023-08-20T02:07:04;97886.38;;;19.26;100.00
5283;BME280;15376;48.540;9.268;2023-08-20T02:09:30;97890.56;;;19.22;100.00
5283;BME280;15376;48.540;9.268;2023-08-20T02:11:55;97884.06;;;19.29;100.00
5283;BME280;15376;48.540;9.268;2023-08-20T02:14:20;97888.03;;;19.27;100.00
5283;BME280;15376;48.540;9.268;2023-08-20T02:16:47;97886.25;;;19.21;100.00
5283;BME280;15376;48.540;9.268;2023-08-20T02:19:13;97879.69;;;19.17;100.00
5283;BME280;15376;48.540;9.268;2023-08-20T02:21:39;97822.16;;;18.81;100.00
5283;BME280;15376;48.540;9.268;2023-08-20T02:24:05;97881.22;;;19.24;100.00
5283;BME280;15376;48.540;9.268;2023-08-20T02:26:31;97826.25;;;19.02;100.00
5283;BME280;15376;48.540;9.268;2023-08-20T02:28:56;97877.84;;;19.29;100.00
5283;BME280;15376;48.540;9.268;2023-08-20T02:31:21;97882.19;;;19.30;100.00
5283;BME280;15376;48.540;9.268;2023-08-20T02:33:47;97884.59;;;19.20;100.00
5283;BME280;15376;48.540;9.268;2023-08-20T02:36:12;97883.28;;;19.11;100.00
5283;BME280;15376;48.540;9.268;2023-08-20T02:38:38;97876.34;;;19.03;100.00
5283;BME280;15376;48.540;9.268;2023-08-20T02:41:03;97870.00;;;18.97;100.00
5283;BME280;15376;48.540;9.268;2023-08-20T02:43:28;97839.63;;;18.79;100.00
5283;BME280;15376;48.540;9.268;2023-08-20T02:45:54;97894.22;;;19.16;100.00
5283;BME280;15376;48.540;9.268;2023-08-20T02:48:19;97868.41;;;19.08;100.00
5283;BME280;15376;48.540;9.268;2023-08-20T02:50:45;97899.16;;;19.30;100.00
5283;BME280;15376;48.540;9.268;2023-08-20T02:53:10;97865.19;;;19.18;100.00
5283;BME280;15376;48.540;9.268;2023-08-20T02:55:36;97888.63;;;19.29;100.00
5283;BME280;15376;48.540;9.268;2023-08-20T02:58:01;97882.78;;;19.32;100.00
5283;BME280;15376;48.540;9.268;2023-08-20T03:00:29;97858.59;;;19.14;100.00
5283;BME280;15376;48.540;9.268;2023-08-20T03:02:55;97887.84;;;19.40;100.00
5283;BME280;15376;48.540;9.268;2023-08-20T03:05:20;97871.88;;;19.27;100.00
5283;BME280;15376;48.540;9.268;2023-08-20T03:07:46;97899.41;;;19.29;100.00
5283;BME280;15376;48.540;9.268;2023-08-20T03:10:11;97893.28;;;19.22;100.00
5283;BME280;15376;48.540;9.268;2023-08-20T03:12:37;97888.09;;;19.09;100.00
5283;BME280;15376;48.540;9.268;2023-08-20T03:15:02;97882.19;;;19.00;100.00
5283;BME280;15376;48.540;9.268;2023-08-20T03:17:28;97855.66;;;18.85;100.00
5283;BME280;15376;48.540;9.268;2023-08-20T03:19:55;97851.66;;;18.76;100.00
5283;BME280;15376;48.540;9.268;2023-08-20T03:22:22;97880.16;;;18.95;100.00
5283;BME280;15376;48.540;9.268;2023-08-20T03:24:47;97876.59;;;18.83;100.00
5283;BME280;15376;48.540;9.268;2023-08-20T03:27:12;97887.50;;;18.88;100.00
5283;BME280;15376;48.540;9.268;2023-08-20T03:29:38;97889.06;;;18.96;100.00
5283;BME280;15376;48.540;9.268;2023-08-20T03:32:03;97837.59;;;18.74;100.00
5283;BME280;15376;48.540;9.268;2023-08-20T03:34:29;97886.00;;;19.11;100.00
5283;BME280;15376;48.540;9.268;2023-08-20T03:36:54;97882.03;;;19.13;100.00
5283;BME280;15376;48.540;9.268;2023-08-20T03:39:20;97846.53;;;18.86;100.00
5283;BME280;15376;48.540;9.268;2023-08-20T03:41:45;97857.97;;;18.82;100.00
5283;BME280;15376;48.540;9.268;2023-08-20T03:44:10;97875.34;;;18.68;100.00
5283;BME280;15376;48.540;9.268;2023-08-20T03:46:35;97859.22;;;18.43;100.00
5283;BME280;15376;48.540;9.268;2023-08-20T03:49:01;97866.56;;;18.36;100.00
5283;BME280;15376;48.540;9.268;2023-08-20T03:51:26;97850.69;;;18.09;100.00
5283;BME280;15376;48.540;9.268;2023-08-20T03:53:52;97863.53;;;18.07;100.00
5283;BME280;15376;48.540;9.268;2023-08-20T03:56:17;97878.63;;;18.08;100.00
5283;BME280;15376;48.540;9.268;2023-08-20T03:58:42;97898.09;;;18.28;100.00
5283;BME280;15376;48.540;9.268;2023-08-20T04:01:08;97901.53;;;18.36;100.00
5283;BME280;15376;48.540;9.268;2023-08-20T04:03:33;97898.41;;;18.39;100.00
5283;BME280;15376;48.540;9.268;2023-08-20T04:05:58;97890.47;;;18.44;100.00
5283;BME280;15376;48.540;9.268;2023-08-20T04:08:24;97893.91;;;18.51;100.00
5283;BME280;15376;48.540;9.268;2023-08-20T04:10:49;97893.19;;;18.62;100.00
5283;BME280;15376;48.540;9.268;2023-08-20T04:13:15;97890.66;;;18.67;100.00
5283;BME280;15376;48.540;9.268;2023-08-20T04:15:41;97890.97;;;18.77;100.00
5283;BME280;15376;48.540;9.268;2023-08-20T04:18:06;97859.47;;;18.59;100.00
5283;BME280;15376;48.540;9.268;2023-08-20T04:20:33;97858.75;;;18.71;100.00
5283;BME280;15376;48.540;9.268;2023-08-20T04:22:58;97885.63;;;18.89;100.00
5283;BME280;15376;48.540;9.268;2023-08-20T04:25:24;97875.09;;;18.87;100.00
5283;BME280;15376;48.540;9.268;2023-08-20T04:27:49;97805.78;;;18.35;100.00
5283;BME280;15376;48.540;9.268;2023-08-20T04:30:14;97829.19;;;18.46;100.00
5283;BME280;15376;48.540;9.268;2023-08-20T04:32:40;97824.88;;;18.45;100.00
5283;BME280;15376;48.540;9.268;2023-08-20T04:35:05;97834.72;;;18.51;100.00
5283;BME280;15376;48.540;9.268;2023-08-20T04:37:31;97869.16;;;18.67;100.00
5283;BME280;15376;48.540;9.268;2023-08-20T04:39:56;97860.44;;;18.47;100.00
5283;BME280;15376;48.540;9.268;2023-08-20T04:42:22;97807.41;;;18.17;100.00
5283;BME280;15376;48.540;9.268;2023-08-20T04:44:47;97882.81;;;18.65;100.00
5283;BME280;15376;48.540;9.268;2023-08-20T04:47:12;97867.13;;;18.62;100.00
5283;BME280;15376;48.540;9.268;2023-08-20T04:49:38;97880.94;;;18.66;100.00
5283;BME280;15376;48.540;9.268;2023-08-20T04:52:04;97853.03;;;18.42;100.00
5283;BME280;15376;48.540;9.268;2023-08-20T04:54:29;97809.66;;;18.20;100.00
5283;BME280;15376;48.540;9.268;2023-08-20T04:56:54;97893.13;;;18.69;100.00
5283;BME280;15376;48.540;9.268;2023-08-20T04:59:19;97862.69;;;18.50;100.00
5283;BME280;15376;48.540;9.268;2023-08-20T05:01:45;97901.13;;;18.75;100.00
5283;BME280;15376;48.540;9.268;2023-08-20T05:04:10;97904.09;;;18.85;100.00
5283;BME280;15376;48.540;9.268;2023-08-20T05:06:36;97911.41;;;18.96;100.00
5283;BME280;15376;48.540;9.268;2023-08-20T05:09:01;97904.31;;;19.02;100.00
5283;BME280;15376;48.540;9.268;2023-08-20T05:11:26;97916.09;;;19.19;100.00
5283;BME280;15376;48.540;9.268;2023-08-20T05:13:55;97926.84;;;19.19;100.00
5283;BME280;15376;48.540;9.268;2023-08-20T05:16:20;97898.41;;;19.12;100.00
5283;BME280;15376;48.540;9.268;2023-08-20T05:18:45;97901.72;;;19.25;100.00
5283;BME280;15376;48.540;9.268;2023-08-20T05:21:10;97923.31;;;19.37;100.00
5283;BME280;15376;48.540;9.268;2023-08-20T05:23:39;97889.06;;;19.26;100.00
5283;BME280;15376;48.540;9.268;2023-08-20T05:26:05;97880.09;;;19.32;100.00
5283;BME280;15376;48.540;9.268;2023-08-20T05:28:30;97908.44;;;19.64;100.00
5283;BME280;15376;48.540;9.268;2023-08-20T05:30:56;97922.09;;;19.81;100.00
5283;BME280;15376;48.540;9.268;2023-08-20T05:33:22;97882.69;;;19.69;100.00
5283;BME280;15376;48.540;9.268;2023-08-20T05:35:48;97913.88;;;19.99;100.00
5283;BME280;15376;48.540;9.268;2023-08-20T05:38:13;97902.88;;;20.01;100.00
5283;BME280;15376;48.540;9.268;2023-08-20T05:40:39;97855.06;;;19.85;100.00
5283;BME280;15376;48.540;9.268;2023-08-20T05:43:04;97888.34;;;20.14;100.00
5283;BME280;15376;48.540;9.268;2023-08-20T05:45:29;97891.41;;;20.29;100.00
5283;BME280;15376;48.540;9.268;2023-08-20T05:47:55;97867.72;;;20.19;100.00
5283;BME280;15376;48.540;9.268;2023-08-20T05:50:20;97888.72;;;20.41;100.00
5283;BME280;15376;48.540;9.268;2023-08-20T05:52:45;97896.34;;;20.44;100.00
5283;BME280;15376;48.540;9.268;2023-08-20T05:55:11;97834.06;;;20.10;100.00
5283;BME280;15376;48.540;9.268;2023-08-20T05:57:36;97823.50;;;20.09;100.00
5283;BME280;15376;48.540;9.268;2023-08-20T06:00:03;97874.06;;;20.48;100.00
5283;BME280;15376;48.540;9.268;2023-08-20T06:02:29;97889.78;;;20.63;100.00
5283;BME280;15376;48.540;9.268;2023-08-20T06:04:55;97864.41;;;20.64;100.00
5283;BME280;15376;48.540;9.268;2023-08-20T06:07:20;97859.59;;;20.78;100.00
5283;BME280;15376;48.540;9.268;2023-08-20T06:09:46;97881.81;;;20.96;100.00
5283;BME280;15376;48.540;9.268;2023-08-20T06:12:11;97921.41;;;21.31;100.00
5283;BME280;15376;48.540;9.268;2023-08-20T06:14:37;97922.19;;;21.43;100.00
5283;BME280;15376;48.540;9.268;2023-08-20T06:17:02;97910.81;;;21.41;100.00
5283;BME280;15376;48.540;9.268;2023-08-20T06:19:28;97913.03;;;21.61;100.00
5283;BME280;15376;48.540;9.268;2023-08-20T06:21:54;97903.06;;;21.61;100.00
5283;BME280;15376;48.540;9.268;2023-08-20T06:24:19;97919.06;;;21.80;100.00
5283;BME280;15376;48.540;9.268;2023-08-20T06:26:45;97897.84;;;21.72;100.00
5283;BME280;15376;48.540;9.268;2023-08-20T06:29:10;97922.22;;;22.05;100.00
5283;BME280;15376;48.540;9.268;2023-08-20T06:31:35;97852.94;;;21.71;100.00
5283;BME280;15376;48.540;9.268;2023-08-20T06:34:01;97854.75;;;21.82;100.00
5283;BME280;15376;48.540;9.268;2023-08-20T06:36:26;97912.47;;;22.21;100.00
5283;BME280;15376;48.540;9.268;2023-08-20T06:38:51;97901.16;;;22.07;100.00
5283;BME280;15376;48.540;9.268;2023-08-20T06:41:17;97914.28;;;22.32;100.00
5283;BME280;15376;48.540;9.268;2023-08-20T06:43:43;97878.53;;;22.30;100.00
5283;BME280;15376;48.540;9.268;2023-08-20T06:46:08;97922.25;;;22.60;100.00
5283;BME280;15376;48.540;9.268;2023-08-20T06:48:34;97902.00;;;22.63;100.00
5283;BME280;15376;48.540;9.268;2023-08-20T06:51:18;97892.25;;;22.84;100.00
5283;BME280;15376;48.540;9.268;2023-08-20T06:53:44;97931.03;;;23.06;100.00
5283;BME280;15376;48.540;9.268;2023-08-20T06:56:10;97939.03;;;23.18;100.00
5283;BME280;15376;48.540;9.268;2023-08-20T06:58:37;97911.31;;;23.11;100.00
5283;BME280;15376;48.540;9.268;2023-08-20T07:01:03;97942.34;;;23.47;100.00
5283;BME280;15376;48.540;9.268;2023-08-20T07:03:38;97918.81;;;23.52;100.00
5283;BME280;15376;48.540;9.268;2023-08-20T07:06:04;97905.22;;;23.47;100.00
5283;BME280;15376;48.540;9.268;2023-08-20T07:08:29;97939.25;;;23.60;100.00
5283;BME280;15376;48.540;9.268;2023-08-20T07:10:55;97929.03;;;23.45;100.00
5283;BME280;15376;48.540;9.268;2023-08-20T07:13:20;97919.25;;;23.17;100.00
5283;BME280;15376;48.540;9.268;2023-08-20T07:15:46;97944.38;;;23.35;100.00
5283;BME280;15376;48.540;9.268;2023-08-20T07:18:11;97948.72;;;23.57;100.00
5283;BME280;15376;48.540;9.268;2023-08-20T07:20:47;97951.06;;;23.76;100.00
5283;BME280;15376;48.540;9.268;2023-08-20T07:23:12;97944.78;;;24.02;100.00
5283;BME280;15376;48.540;9.268;2023-08-20T07:25:39;97928.69;;;24.22;100.00
5283;BME280;15376;48.540;9.268;2023-08-20T07:28:06;97948.97;;;24.47;100.00
5283;BME280;15376;48.540;9.268;2023-08-20T07:30:32;97921.59;;;24.16;100.00
5283;BME280;15376;48.540;9.268;2023-08-20T07:32:58;97951.75;;;24.52;100.00
5283;BME280;15376;48.540;9.268;2023-08-20T07:35:24;97921.19;;;24.30;100.00
5283;BME280;15376;48.540;9.268;2023-08-20T07:37:49;97954.31;;;24.69;100.00
5283;BME280;15376;48.540;9.268;2023-08-20T07:40:15;97918.38;;;24.56;100.00
5283;BME280;15376;48.540;9.268;2023-08-20T07:42:40;97947.81;;;24.75;100.00
5283;BME280;15376;48.540;9.268;2023-08-20T07:45:06;97953.59;;;24.88;100.00
5283;BME280;15376;48.540;9.268;2023-08-20T07:47:33;97940.34;;;24.97;100.00
5283;BME280;15376;48.540;9.268;2023-08-20T07:49:58;97936.84;;;25.02;100.00
5283;BME280;15376;48.540;9.268;2023-08-20T07:52:23;97936.63;;;25.08;100.00
5283;BME280;15376;48.540;9.268;2023-08-20T07:54:49;97956.78;;;25.27;100.00
5283;BME280;15376;48.540;9.268;2023-08-20T07:57:14;97963.50;;;25.05;100.00
5283;BME280;15376;48.540;9.268;2023-08-20T07:59:39;97958.38;;;25.13;100.00
5283;BME280;15376;48.540;9.268;2023-08-20T08:02:05;97955.41;;;25.15;100.00
5283;BME280;15376;48.540;9.268;2023-08-20T08:04:30;97959.94;;;24.99;100.00
5283;BME280;15376;48.540;9.268;2023-08-20T08:06:56;97967.38;;;25.24;100.00
5283;BME280;15376;48.540;9.268;2023-08-20T08:09:27;97981.56;;;25.36;100.00
5283;BME280;15376;48.540;9.268;2023-08-20T08:11:53;97983.25;;;25.47;100.00
5283;BME280;15376;48.540;9.268;2023-08-20T08:14:19;97976.22;;;25.62;100.00
5283;BME280;15376;48.540;9.268;2023-08-20T08:16:46;97938.66;;;25.48;100.00
5283;BME280;15376;48.540;9.268;2023-08-20T08:19:12;97960.47;;;25.64;100.00
5283;BME280;15376;48.540;9.268;2023-08-20T08:21:38;97986.69;;;25.95;100.00
5283;BME280;15376;48.540;9.268;2023-08-20T08:24:03;97923.72;;;25.61;100.00
5283;BME280;15376;48.540;9.268;2023-08-20T08:26:30;97972.25;;;26.05;100.00
5283;BME280;15376;48.540;9.268;2023-08-20T08:28:55;97976.34;;;26.07;100.00
5283;BME280;15376;48.540;9.268;2023-08-20T08:31:20;97961.38;;;26.10;100.00
5283;BME280;15376;48.540;9.268;2023-08-20T08:33:46;97940.94;;;26.17;100.00
5283;BME280;15376;48.540;9.268;2023-08-20T08:36:11;97952.41;;;26.30;100.00
5283;BME280;15376;48.540;9.268;2023-08-20T08:38:37;97969.84;;;26.49;100.00
5283;BME280;15376;48.540;9.268;2023-08-20T08:41:08;97974.72;;;26.57;100.00
5283;BME280;15376;48.540;9.268;2023-08-20T08:43:35;97986.19;;;26.54;100.00
5283;BME280;15376;48.540;9.268;2023-08-20T08:46:06;97945.84;;;26.51;100.00
5283;BME280;15376;48.540;9.268;2023-08-20T08:48:32;97980.97;;;26.98;100.00
5283;BME280;15376;48.540;9.268;2023-08-20T08:50:58;97992.69;;;27.04;100.00
5283;BME280;15376;48.540;9.268;2023-08-20T08:53:24;97955.38;;;26.79;100.00
5283;BME280;15376;48.540;9.268;2023-08-20T08:55:50;97978.50;;;27.07;100.00
5283;BME280;15376;48.540;9.268;2023-08-20T08:58:16;97986.13;;;26.95;100.00
5283;BME280;15376;48.540;9.268;2023-08-20T09:00:41;97970.59;;;27.00;100.00
5283;BME280;15376;48.540;9.268;2023-08-20T09:03:06;97982.28;;;27.16;100.00
5283;BME280;15376;48.540;9.268;2023-08-20T09:05:32;97969.16;;;27.23;100.00
5283;BME280;15376;48.540;9.268;2023-08-20T09:07:57;97981.06;;;27.42;100.00
5283;BME280;15376;48.540;9.268;2023-08-20T09:10:26;97985.16;;;27.50;98.90
5283;BME280;15376;48.540;9.268;2023-08-20T09:12:54;97933.78;;;27.03;98.14
5283;BME280;15376;48.540;9.268;2023-08-20T09:15:20;97984.34;;;27.44;97.80
5283;BME280;15376;48.540;9.268;2023-08-20T09:17:46;97980.41;;;27.71;97.52
5283;BME280;15376;48.540;9.268;2023-08-20T09:20:12;97977.88;;;27.84;94.23
5283;BME280;15376;48.540;9.268;2023-08-20T09:22:37;97988.66;;;28.05;91.58
5283;BME280;15376;48.540;9.268;2023-08-20T09:25:03;97985.38;;;28.08;92.68
5283;BME280;15376;48.540;9.268;2023-08-20T09:27:29;97977.72;;;28.05;91.88
5283;BME280;15376;48.540;9.268;2023-08-20T09:29:55;97986.47;;;28.07;90.67
5283;BME280;15376;48.540;9.268;2023-08-20T09:32:27;97958.53;;;27.81;91.93
5283;BME280;15376;48.540;9.268;2023-08-20T09:34:54;97988.88;;;28.13;90.46
5283;BME280;15376;48.540;9.268;2023-08-20T09:37:24;97984.19;;;28.19;89.25
5283;BME280;15376;48.540;9.268;2023-08-20T09:39:50;97988.28;;;28.55;86.19
5283;BME280;15376;48.540;9.268;2023-08-20T09:42:16;97982.66;;;28.42;90.14
5283;BME280;15376;48.540;9.268;2023-08-20T09:44:44;97991.38;;;28.78;88.56
5283;BME280;15376;48.540;9.268;2023-08-20T09:47:14;97983.34;;;29.39;86.75
5283;BME280;15376;48.540;9.268;2023-08-20T09:52:11;97987.88;;;32.26;73.80
5283;BME280;15376;48.540;9.268;2023-08-20T09:55:00;98000.00;;;33.32;68.80
5283;BME280;15376;48.540;9.268;2023-08-20T09:57:37;97995.53;;;34.36;62.68
5283;BME280;15376;48.540;9.268;2023-08-20T10:00:04;97994.66;;;34.70;60.01
5283;BME280;15376;48.540;9.268;2023-08-20T10:02:31;97996.72;;;34.99;56.41
5283;BME280;15376;48.540;9.268;2023-08-20T10:04:58;97978.00;;;35.72;54.69
5283;BME280;15376;48.540;9.268;2023-08-20T10:07:28;97996.00;;;37.52;48.15
5283;BME280;15376;48.540;9.268;2023-08-20T10:09:56;97988.47;;;37.89;48.16
5283;BME280;15376;48.540;9.268;2023-08-20T10:12:28;97988.47;;;37.64;45.25
5283;BME280;15376;48.540;9.268;2023-08-20T10:14:55;97986.16;;;37.30;46.34
5283;BME280;15376;48.540;9.268;2023-08-20T10:17:22;97981.88;;;37.08;49.09
5283;BME280;15376;48.540;9.268;2023-08-20T10:19:48;97989.31;;;37.41;49.15
5283;BME280;15376;48.540;9.268;2023-08-20T10:22:13;97977.53;;;37.44;45.21
5283;BME280;15376;48.540;9.268;2023-08-20T10:24:50;97985.19;;;38.39;42.25
5283;BME280;15376;48.540;9.268;2023-08-20T10:27:30;97983.28;;;38.55;43.04
5283;BME280;15376;48.540;9.268;2023-08-20T10:29:58;97960.59;;;38.65;42.07
5283;BME280;15376;48.540;9.268;2023-08-20T10:32:43;97984.00;;;39.90;40.68
5283;BME280;15376;48.540;9.268;2023-08-20T10:35:09;97946.63;;;39.41;39.49
5283;BME280;15376;48.540;9.268;2023-08-20T10:37:34;97987.63;;;40.29;38.24
5283;BME280;15376;48.540;9.268;2023-08-20T10:40:02;97984.03;;;40.48;38.63
5283;BME280;15376;48.540;9.268;2023-08-20T10:42:29;97952.63;;;40.71;36.99
5283;BME280;15376;48.540;9.268;2023-08-20T10:44:59;97970.06;;;41.33;35.65
5283;BME280;15376;48.540;9.268;2023-08-20T10:47:34;97984.56;;;41.42;35.08
5283;BME280;15376;48.540;9.268;2023-08-20T10:50:00;97986.38;;;41.30;35.98
5283;BME280;15376;48.540;9.268;2023-08-20T10:52:25;97982.72;;;41.26;35.59
5283;BME280;15376;48.540;9.268;2023-08-20T10:54:51;97974.38;;;42.06;34.45
5283;BME280;15376;48.540;9.268;2023-08-20T10:57:17;97986.72;;;42.05;34.26
5283;BME280;15376;48.540;9.268;2023-08-20T10:59:56;97982.06;;;40.49;35.05
5283;BME280;15376;48.540;9.268;2023-08-20T11:02:23;97984.91;;;40.52;36.36
5283;BME280;15376;48.540;9.268;2023-08-20T11:04:49;97958.75;;;40.99;36.59
5283;BME280;15376;48.540;9.268;2023-08-20T11:07:17;97958.56;;;42.17;33.12
5283;BME280;15376;48.540;9.268;2023-08-20T11:09:44;97972.34;;;42.03;33.12
5283;BME280;15376;48.540;9.268;2023-08-20T11:12:14;97974.38;;;41.53;34.37
5283;BME280;15376;48.540;9.268;2023-08-20T11:14:39;97975.47;;;41.45;34.24
5283;BME280;15376;48.540;9.268;2023-08-20T11:17:05;97970.38;;;41.50;34.71
5283;BME280;15376;48.540;9.268;2023-08-20T11:19:30;97967.00;;;41.90;34.40
5283;BME280;15376;48.540;9.268;2023-08-20T11:21:56;97965.44;;;42.93;33.44
5283;BME280;15376;48.540;9.268;2023-08-20T11:24:22;97961.81;;;42.89;34.12
5283;BME280;15376;48.540;9.268;2023-08-20T11:26:48;97971.19;;;42.37;32.39
5283;BME280;15376;48.540;9.268;2023-08-20T11:29:15;97964.81;;;42.70;33.35
5283;BME280;15376;48.540;9.268;2023-08-20T11:31:47;97974.88;;;42.82;32.38
5283;BME280;15376;48.540;9.268;2023-08-20T11:34:12;97940.81;;;43.06;31.58
5283;BME280;15376;48.540;9.268;2023-08-20T11:36:38;97957.69;;;43.17;32.64
5283;BME280;15376;48.540;9.268;2023-08-20T11:39:04;97960.03;;;42.37;31.79
5283;BME280;15376;48.540;9.268;2023-08-20T11:41:30;97952.28;;;41.93;32.71
5283;BME280;15376;48.540;9.268;2023-08-20T11:43:56;97947.84;;;42.19;33.12
5283;BME280;15376;48.540;9.268;2023-08-20T11:46:23;97953.84;;;42.54;31.57
5283;BME280;15376;48.540;9.268;2023-08-20T11:49:11;97955.19;;;41.74;33.40
5283;BME280;15376;48.540;9.268;2023-08-20T11:51:58;97957.28;;;41.54;32.36
5283;BME280;15376;48.540;9.268;2023-08-20T11:54:23;97943.88;;;41.14;33.36
5283;BME280;15376;48.540;9.268;2023-08-20T11:56:51;97938.41;;;41.21;34.07
5283;BME280;15376;48.540;9.268;2023-08-20T11:59:20;97933.94;;;40.71;34.99
5283;BME280;15376;48.540;9.268;2023-08-20T12:01:54;97935.06;;;40.89;34.80
5283;BME280;15376;48.540;9.268;2023-08-20T12:04:23;97921.38;;;40.81;35.63
5283;BME280;15376;48.540;9.268;2023-08-20T12:07:01;97931.63;;;40.96;35.83
5283;BME280;15376;48.540;9.268;2023-08-20T12:09:28;97901.69;;;39.89;35.58
5283;BME280;15376;48.540;9.268;2023-08-20T12:11:54;97874.16;;;38.39;37.73
5283;BME280;15376;48.540;9.268;2023-08-20T12:14:23;97921.72;;;38.65;36.85
5283;BME280;15376;48.540;9.268;2023-08-20T12:16:49;97911.63;;;37.65;39.65
5283;BME280;15376;48.540;9.268;2023-08-20T12:19:16;97909.59;;;36.77;41.68
5283;BME280;15376;48.540;9.268;2023-08-20T12:21:42;97901.53;;;36.96;39.80
5283;BME280;15376;48.540;9.268;2023-08-20T12:24:09;97910.88;;;36.46;40.75
5283;BME280;15376;48.540;9.268;2023-08-20T12:26:35;97914.34;;;35.60;43.05
5283;BME280;15376;48.540;9.268;2023-08-20T12:29:01;97918.47;;;35.54;42.38
5283;BME280;15376;48.540;9.268;2023-08-20T12:31:26;97903.03;;;34.94;43.08
5283;BME280;15376;48.540;9.268;2023-08-20T12:33:52;97906.44;;;34.35;45.89
5283;BME280;15376;48.540;9.268;2023-08-20T12:36:17;97891.22;;;33.86;48.88
5283;BME280;15376;48.540;9.268;2023-08-20T12:38:42;97895.22;;;33.63;47.93
5283;BME280;15376;48.540;9.268;2023-08-20T12:41:08;97852.38;;;33.05;51.11
5283;BME280;15376;48.540;9.268;2023-08-20T12:43:34;97880.41;;;33.16;50.38
5283;BME280;15376;48.540;9.268;2023-08-20T12:45:59;97885.53;;;33.00;50.52
5283;BME280;15376;48.540;9.268;2023-08-20T12:48:25;97882.91;;;32.55;54.17
5283;BME280;15376;48.540;9.268;2023-08-20T12:50:50;97880.44;;;32.76;50.64
5283;BME280;15376;48.540;9.268;2023-08-20T12:53:15;97880.34;;;32.59;52.67
5283;BME280;15376;48.540;9.268;2023-08-20T12:55:41;97836.47;;;32.23;52.01
5283;BME280;15376;48.540;9.268;2023-08-20T12:58:06;97864.88;;;32.40;51.44
5283;BME280;15376;48.540;9.268;2023-08-20T13:00:32;97820.91;;;32.18;51.43
5283;BME280;15376;48.540;9.268;2023-08-20T13:02:58;97874.78;;;32.50;53.87
5283;BME280;15376;48.540;9.268;2023-08-20T13:05:24;97868.69;;;32.62;52.58
5283;BME280;15376;48.540;9.268;2023-08-20T13:07:50;97860.22;;;32.49;53.95
5283;BME280;15376;48.540;9.268;2023-08-20T13:10:16;97870.06;;;32.20;54.96